createdAt,value
2017-08-10T00:00:19.930Z,66.9
2017-08-10T00:01:21.480Z,66.7
2017-08-10T00:02:43.097Z,66.5
2017-08-10T00:03:44.508Z,66.8
2017-08-10T00:05:06.151Z,66.1
2017-08-10T00:06:07.569Z,66.5
2017-08-10T00:07:29.067Z,66.3
2017-08-10T00:08:30.478Z,66.7
2017-08-10T00:09:52.194Z,67.1
2017-08-10T00:10:53.675Z,67.2
2017-08-10T00:12:15.273Z,67.3
2017-08-10T00:13:16.774Z,67.4
2017-08-10T00:14:38.385Z,67.4
2017-08-10T00:15:39.796Z,67.3
2017-08-10T00:17:01.370Z,67.0
2017-08-10T00:18:02.948Z,67.1
2017-08-10T00:19:24.445Z,66.8
2017-08-10T00:20:25.854Z,66.8
2017-08-10T00:21:47.374Z,66.9
2017-08-10T00:22:48.880Z,66.9
2017-08-10T00:24:10.381Z,67.2
2017-08-10T00:25:11.791Z,67.5
2017-08-10T00:26:33.310Z,66.7
2017-08-10T00:27:34.777Z,66.8
2017-08-10T00:28:56.306Z,66.9
2017-08-10T00:29:57.728Z,66.9
2017-08-10T00:31:19.251Z,66.5
2017-08-10T00:32:20.662Z,66.4
2017-08-10T00:33:42.166Z,66.2
2017-08-10T00:34:43.575Z,65.9
2017-08-10T00:36:05.097Z,67.0
2017-08-10T00:37:06.507Z,66.8
2017-08-10T00:38:28.003Z,67.2
2017-08-10T00:39:29.416Z,67.0
2017-08-10T00:40:50.937Z,67.2
2017-08-10T00:41:52.345Z,67.9
2017-08-10T00:43:13.890Z,68.0
2017-08-10T00:44:15.298Z,67.6
2017-08-10T00:45:36.816Z,67.8
2017-08-10T00:46:38.277Z,67.8
2017-08-10T00:47:59.807Z,67.3
2017-08-10T00:49:01.225Z,67.2
2017-08-10T00:50:22.780Z,67.1
2017-08-10T00:51:24.237Z,67.6
2017-08-10T00:52:45.741Z,67.7
2017-08-10T00:53:47.152Z,67.3
2017-08-10T00:55:08.648Z,67.4
2017-08-10T00:56:10.058Z,67.9
2017-08-10T00:57:31.580Z,67.4
2017-08-10T00:58:32.991Z,67.1
2017-08-10T00:59:54.489Z,67.5
2017-08-10T01:00:55.898Z,67.8
2017-08-10T01:02:17.411Z,67.0
2017-08-10T01:03:18.823Z,66.8
2017-08-10T01:04:40.319Z,67.1
2017-08-10T01:05:41.731Z,67.1
2017-08-10T01:07:03.473Z,67.3
2017-08-10T01:08:04.881Z,67.2
2017-08-10T01:09:26.380Z,66.8
2017-08-10T01:10:27.923Z,66.9
2017-08-10T01:11:49.431Z,67.4
2017-08-10T01:12:50.843Z,67.2
2017-08-10T01:14:12.340Z,67.7
2017-08-10T01:15:13.748Z,67.6
2017-08-10T01:16:35.269Z,67.4
2017-08-10T01:17:36.680Z,67.2
2017-08-10T01:18:58.177Z,67.2
2017-08-10T01:19:59.604Z,67.3
2017-08-10T01:21:21.122Z,68.1
2017-08-10T01:22:22.532Z,67.8
2017-08-10T01:23:44.031Z,67.8
2017-08-10T01:24:45.440Z,68.1
2017-08-10T01:26:06.962Z,67.5
2017-08-10T01:27:08.371Z,67.8
2017-08-10T01:28:29.869Z,68.1
2017-08-10T01:29:31.280Z,67.7
2017-08-10T01:30:52.797Z,68.4
2017-08-10T01:31:54.208Z,68.0
2017-08-10T01:33:15.703Z,68.1
2017-08-10T01:34:17.113Z,68.1
2017-08-10T01:35:38.631Z,67.7
2017-08-10T01:36:40.040Z,67.7
2017-08-10T01:38:01.539Z,67.6
2017-08-10T01:39:02.949Z,68.1
2017-08-10T01:40:24.445Z,68.2
2017-08-10T01:41:25.855Z,68.5
2017-08-10T01:42:47.370Z,68.8
2017-08-10T01:43:48.781Z,68.5
2017-08-10T01:45:10.278Z,68.3
2017-08-10T01:46:11.687Z,68.7
2017-08-10T01:47:33.204Z,68.9
2017-08-10T01:48:34.614Z,68.8
2017-08-10T01:49:56.108Z,69.6
2017-08-10T01:50:57.516Z,69.5
2017-08-10T01:52:19.040Z,69.3
2017-08-10T01:53:20.451Z,69.4
2017-08-10T01:54:41.945Z,69.6
2017-08-10T01:55:43.355Z,69.6
2017-08-10T01:57:04.870Z,69.5
2017-08-10T01:58:06.280Z,70.3
2017-08-10T01:59:27.776Z,69.7
2017-08-10T02:00:29.188Z,70.0
2017-08-10T02:01:50.703Z,70.4
2017-08-10T02:02:52.114Z,70.1
2017-08-10T02:04:13.612Z,70.4
2017-08-10T02:05:15.022Z,70.3
2017-08-10T02:06:36.545Z,70.0
2017-08-10T02:07:37.955Z,70.7
2017-08-10T02:08:59.451Z,70.1
2017-08-10T02:10:00.863Z,70.3
2017-08-10T02:11:22.379Z,70.3
2017-08-10T02:12:23.791Z,70.6
2017-08-10T02:13:45.286Z,70.4
2017-08-10T02:14:46.695Z,71.1
2017-08-10T02:16:08.220Z,70.4
2017-08-10T02:17:09.629Z,70.7
2017-08-10T02:18:31.126Z,70.9
2017-08-10T02:19:32.534Z,70.8
2017-08-10T02:20:54.049Z,70.3
2017-08-10T02:21:55.459Z,70.6
2017-08-10T02:23:16.958Z,70.1
2017-08-10T02:24:18.366Z,70.8
2017-08-10T02:25:39.880Z,70.5
2017-08-10T02:26:41.290Z,70.1
2017-08-10T02:28:02.791Z,70.1
2017-08-10T02:29:04.202Z,69.9
2017-08-10T02:30:25.701Z,69.8
2017-08-10T02:31:27.110Z,70.2
2017-08-10T02:32:48.626Z,71.2
2017-08-10T02:33:50.036Z,71.7
2017-08-10T02:35:11.534Z,71.4
2017-08-10T02:36:12.943Z,71.9
2017-08-10T02:37:34.456Z,71.7
2017-08-10T02:38:35.868Z,71.4
2017-08-10T02:39:57.366Z,72.1
2017-08-10T02:40:58.777Z,72.1
2017-08-10T02:42:20.294Z,71.9
2017-08-10T02:43:21.707Z,72.4
2017-08-10T02:44:43.197Z,72.2
2017-08-10T02:45:44.607Z,72.1
2017-08-10T02:47:06.125Z,72.3
2017-08-10T02:48:07.538Z,71.4
2017-08-10T02:49:29.038Z,71.9
2017-08-10T02:50:30.446Z,71.7
2017-08-10T02:51:51.963Z,71.8
2017-08-10T02:52:53.374Z,71.5
2017-08-10T02:54:14.872Z,71.9
2017-08-10T02:55:16.281Z,72.2
2017-08-10T02:56:38.791Z,72.6
2017-08-10T02:57:40.199Z,72.3
2017-08-10T02:59:01.698Z,72.6
2017-08-10T03:00:03.107Z,72.3
2017-08-10T03:01:24.627Z,72.0
2017-08-10T03:02:26.037Z,72.0
2017-08-10T03:03:47.532Z,72.2
2017-08-10T03:04:48.943Z,72.1
2017-08-10T03:06:10.459Z,72.2
2017-08-10T03:07:11.869Z,71.4
2017-08-10T03:08:33.373Z,72.2
2017-08-10T03:09:34.782Z,72.4
2017-08-10T03:10:56.300Z,72.2
2017-08-10T03:11:57.709Z,72.2
2017-08-10T03:13:19.201Z,72.4
2017-08-10T03:14:20.611Z,72.0
2017-08-10T03:15:42.111Z,72.4
2017-08-10T03:16:43.521Z,72.5
2017-08-10T03:18:05.038Z,72.3
2017-08-10T03:19:06.449Z,72.3
2017-08-10T03:20:27.948Z,72.3
2017-08-10T03:21:29.353Z,71.4
2017-08-10T03:22:50.872Z,72.0
2017-08-10T03:23:52.282Z,71.4
2017-08-10T03:25:13.778Z,71.7
2017-08-10T03:26:15.189Z,71.6
2017-08-10T03:27:36.705Z,71.4
2017-08-10T03:28:38.117Z,71.7
2017-08-10T03:29:59.611Z,71.5
2017-08-10T03:31:01.039Z,71.9
2017-08-10T03:32:22.550Z,71.3
2017-08-10T03:33:23.960Z,71.3
2017-08-10T03:34:45.453Z,72.2
2017-08-10T03:35:46.864Z,71.5
2017-08-10T03:37:08.379Z,71.6
2017-08-10T03:38:09.790Z,71.5
2017-08-10T03:39:31.287Z,72.1
2017-08-10T03:40:32.696Z,72.3
2017-08-10T03:41:54.214Z,72.1
2017-08-10T03:42:55.623Z,72.3
2017-08-10T03:44:17.121Z,72.6
2017-08-10T03:45:18.531Z,72.0
2017-08-10T03:46:40.046Z,72.0
2017-08-10T03:47:41.461Z,72.1
2017-08-10T03:49:02.959Z,72.5
2017-08-10T03:50:04.369Z,72.8
2017-08-10T03:51:25.883Z,72.3
2017-08-10T03:52:27.297Z,72.1
2017-08-10T03:53:48.796Z,72.2
2017-08-10T03:54:50.206Z,72.3
2017-08-10T03:56:11.735Z,72.4
2017-08-10T03:57:13.138Z,72.6
2017-08-10T03:58:34.634Z,72.2
2017-08-10T03:59:36.044Z,72.3
2017-08-10T04:00:57.540Z,72.5
2017-08-10T04:01:58.954Z,72.2
2017-08-10T04:03:20.468Z,72.2
2017-08-10T04:04:21.881Z,72.4
2017-08-10T04:05:43.379Z,72.3
2017-08-10T04:06:44.791Z,72.4
2017-08-10T04:08:06.317Z,72.5
2017-08-10T04:09:07.727Z,72.5
2017-08-10T04:10:29.228Z,72.5
2017-08-10T04:11:30.641Z,72.4
2017-08-10T04:12:52.160Z,72.1
2017-08-10T04:13:53.576Z,72.1
2017-08-10T04:15:15.072Z,72.2
2017-08-10T04:16:16.484Z,71.6
2017-08-10T04:17:38.007Z,71.7
2017-08-10T04:18:39.423Z,71.9
2017-08-10T04:20:00.923Z,71.9
2017-08-10T04:21:02.336Z,71.8
2017-08-10T04:22:23.854Z,71.8
2017-08-10T04:23:25.268Z,72.1
2017-08-10T04:24:46.771Z,72.2
2017-08-10T04:25:48.183Z,72.1
2017-08-10T04:27:10.696Z,72.4
2017-08-10T04:28:12.107Z,72.6
2017-08-10T04:29:33.607Z,72.2
2017-08-10T04:30:35.018Z,72.3
2017-08-10T04:31:56.535Z,72.4
2017-08-10T04:32:57.955Z,72.6
2017-08-10T04:34:19.450Z,72.4
2017-08-10T04:35:20.862Z,72.2
2017-08-10T04:36:42.381Z,72.1
2017-08-10T04:37:43.807Z,72.4
2017-08-10T04:39:05.298Z,72.2
2017-08-10T04:40:06.712Z,72.8
2017-08-10T04:41:28.235Z,73.1
2017-08-10T04:42:29.650Z,72.7
2017-08-10T04:43:51.150Z,73.1
2017-08-10T04:44:52.562Z,72.9
2017-08-10T04:46:14.556Z,72.5
2017-08-10T07:00:34.778Z,67.3
2017-08-10T07:01:36.196Z,67.2
2017-08-10T07:02:57.718Z,67.3
2017-08-10T07:03:59.134Z,67.0
2017-08-10T07:05:20.641Z,67.2
2017-08-10T07:06:22.058Z,67.4
2017-08-10T07:07:43.579Z,67.5
2017-08-10T07:08:44.995Z,67.5
2017-08-10T07:10:06.663Z,67.0
2017-08-10T07:11:08.084Z,67.0
2017-08-10T07:12:29.609Z,66.9
2017-08-10T07:13:31.025Z,68.3
2017-08-10T07:14:52.528Z,67.5
2017-08-10T07:15:53.945Z,67.6
2017-08-10T07:17:15.471Z,67.0
2017-08-10T07:18:16.887Z,66.6
2017-08-10T07:19:38.393Z,66.6
2017-08-10T07:20:39.809Z,66.2
2017-08-10T07:22:01.311Z,66.2
2017-08-10T07:23:02.726Z,65.6
2017-08-10T07:24:24.248Z,66.1
2017-08-10T07:25:25.666Z,65.3
2017-08-10T07:26:47.173Z,65.0
2017-08-10T07:27:48.590Z,64.5
2017-08-10T07:29:10.115Z,64.6
2017-08-10T07:30:11.533Z,64.1
2017-08-10T07:31:33.039Z,64.7
2017-08-10T07:32:34.455Z,63.4
2017-08-10T07:33:55.980Z,63.4
2017-08-10T07:34:57.397Z,63.5
2017-08-10T07:36:18.904Z,63.2
2017-08-10T07:37:20.322Z,63.3
2017-08-10T07:38:41.847Z,64.3
2017-08-10T07:39:43.263Z,64.4
2017-08-10T07:41:04.767Z,64.6
2017-08-10T07:42:06.184Z,63.5
2017-08-10T07:43:27.728Z,63.3
2017-08-10T07:44:29.130Z,63.3
2017-08-10T07:45:50.637Z,62.0
2017-08-10T07:46:52.056Z,61.4
2017-08-10T07:48:13.581Z,62.0
2017-08-10T07:49:14.997Z,62.5
2017-08-10T07:50:36.506Z,62.2
2017-08-10T07:51:37.920Z,62.6
2017-08-10T07:53:00.443Z,62.0
2017-08-10T07:54:01.858Z,61.5
2017-08-10T07:55:23.362Z,61.4
2017-08-10T07:56:24.780Z,60.2
2017-08-10T07:57:46.306Z,60.3
2017-08-10T07:58:47.724Z,60.3
2017-08-10T08:00:09.231Z,59.5
2017-08-10T08:01:10.651Z,58.6
2017-08-10T08:02:32.310Z,58.5
2017-08-10T08:03:33.728Z,58.8
2017-08-10T08:04:55.235Z,58.6
2017-08-10T08:05:56.654Z,58.7
2017-08-10T08:07:18.166Z,58.3
2017-08-10T08:08:19.584Z,58.7
2017-08-10T08:09:41.107Z,58.6
2017-08-10T08:10:42.526Z,57.6
2017-08-10T08:12:04.033Z,57.8
2017-08-10T08:13:05.450Z,57.7
2017-08-10T08:14:26.980Z,56.9
2017-08-10T08:15:28.398Z,56.2
2017-08-10T08:16:49.913Z,56.6
2017-08-10T08:17:51.330Z,57.2
2017-08-10T08:19:12.861Z,57.1
2017-08-10T08:20:14.280Z,54.4
2017-08-10T08:21:35.793Z,54.5
2017-08-10T08:22:37.211Z,55.2
2017-08-10T08:24:00.233Z,56.3
2017-08-10T08:25:01.654Z,55.2
2017-08-10T08:26:23.166Z,55.3
2017-08-10T08:27:24.584Z,55.2
2017-08-10T08:28:46.115Z,54.7
2017-08-10T08:29:47.535Z,54.4
2017-08-10T08:31:09.048Z,53.4
2017-08-10T08:32:10.467Z,53.3
2017-08-10T08:33:32.500Z,53.1
2017-08-10T08:34:33.921Z,53.2
2017-08-10T08:35:55.437Z,53.3
2017-08-10T08:36:56.856Z,52.8
2017-08-10T08:38:18.387Z,53.6
2017-08-10T08:39:19.806Z,53.4
2017-08-10T08:40:41.323Z,53.9
2017-08-10T08:41:42.734Z,54.0
2017-08-10T08:43:04.259Z,53.1
2017-08-10T08:44:05.680Z,52.8
2017-08-10T08:45:27.186Z,52.9
2017-08-10T08:46:28.604Z,53.2
2017-08-10T08:47:51.133Z,53.4
2017-08-10T08:48:52.552Z,52.8
2017-08-10T08:50:14.278Z,53.3
2017-08-10T08:51:15.698Z,52.7
2017-08-10T08:52:37.209Z,53.4
2017-08-10T08:53:38.629Z,53.2
2017-08-10T08:55:00.344Z,52.3
2017-08-10T08:56:01.766Z,53.7
2017-08-10T08:57:23.275Z,51.0
2017-08-10T08:58:24.710Z,51.3
2017-08-10T08:59:46.226Z,50.5
2017-08-10T09:00:47.645Z,51.3
2017-08-10T09:02:09.158Z,50.7
2017-08-10T09:03:10.586Z,50.2
2017-08-10T09:04:32.115Z,50.0
2017-08-10T09:05:33.534Z,49.6
2017-08-10T09:06:55.048Z,52.0
2017-08-10T09:07:56.469Z,52.4
2017-08-10T09:09:18.002Z,53.1
2017-08-10T09:10:19.419Z,51.2
2017-08-10T09:11:40.932Z,51.8
2017-08-10T09:12:42.351Z,51.5
2017-08-10T09:14:03.886Z,49.7
2017-08-10T09:15:05.307Z,50.0
2017-08-10T09:16:26.823Z,50.1
2017-08-10T09:17:28.243Z,49.8
2017-08-10T09:18:50.125Z,49.9
2017-08-10T09:19:53.470Z,50.7
2017-08-10T09:21:17.436Z,50.6
2017-08-10T09:49:50.028Z,45.1
2017-08-10T09:50:51.451Z,47.0
2017-08-10T09:52:12.962Z,45.8
2017-08-10T09:53:14.382Z,45.4
2017-08-10T09:54:35.913Z,44.4
2017-08-10T09:55:37.333Z,42.8
2017-08-10T09:56:58.851Z,41.5
2017-08-10T09:58:00.272Z,43.0
2017-08-10T09:59:21.807Z,45.0
2017-08-10T10:00:23.226Z,44.5
2017-08-10T10:01:44.738Z,44.6
2017-08-10T10:02:46.161Z,43.4
2017-08-10T10:04:07.690Z,44.4
2017-08-10T10:05:09.114Z,45.2
2017-08-10T10:06:30.628Z,44.4
2017-08-10T10:07:32.054Z,44.0
2017-08-10T10:08:53.602Z,42.1
2017-08-10T10:10:34.492Z,43.2
2017-08-10T10:12:15.379Z,41.9
2017-08-10T10:13:16.806Z,42.2
2017-08-10T10:14:38.339Z,41.9
2017-08-10T10:15:39.761Z,42.2
2017-08-10T10:17:01.279Z,38.7
2017-08-10T10:18:02.701Z,39.1
2017-08-10T10:19:24.232Z,40.4
2017-08-10T10:20:25.656Z,39.8
2017-08-10T10:21:47.174Z,40.9
2017-08-10T10:22:48.596Z,39.5
2017-08-10T10:24:10.127Z,39.1
2017-08-10T10:25:11.552Z,37.5
2017-08-10T10:26:33.070Z,38.1
2017-08-10T10:27:34.489Z,37.3
2017-08-10T10:28:56.023Z,38.4
2017-08-10T10:29:57.445Z,37.3
2017-08-10T10:31:18.960Z,37.8
2017-08-10T10:32:20.381Z,39.3
2017-08-10T10:33:41.913Z,38.8
2017-08-10T10:34:43.337Z,40.8
2017-08-10T10:36:04.859Z,40.2
2017-08-10T10:37:06.284Z,39.1
2017-08-10T10:38:27.822Z,39.3
2017-08-10T10:39:29.243Z,40.5
2017-08-10T10:40:50.760Z,40.6
2017-08-10T10:41:52.182Z,40.1
2017-08-10T10:43:13.910Z,41.6
2017-08-10T10:44:15.329Z,42.0
2017-08-10T10:45:37.062Z,41.7
2017-08-10T10:46:38.483Z,41.3
2017-08-10T10:47:59.999Z,41.7
2017-08-10T10:49:01.420Z,41.8
2017-08-10T10:50:22.952Z,42.4
2017-08-10T10:51:24.375Z,42.8
2017-08-10T10:52:45.889Z,43.4
2017-08-10T10:53:47.311Z,42.7
2017-08-10T10:55:08.840Z,42.2
2017-08-10T10:56:10.263Z,43.0
2017-08-10T10:57:31.783Z,44.7
2017-08-10T10:58:33.203Z,43.7
2017-08-10T10:59:54.741Z,43.7
2017-08-10T11:00:56.163Z,43.1
2017-08-10T11:02:18.671Z,41.8
2017-08-10T11:03:20.096Z,41.8
2017-08-10T11:04:41.626Z,41.2
2017-08-10T11:05:43.048Z,39.7
2017-08-10T11:07:04.557Z,39.6
2017-08-10T11:08:05.979Z,39.4
2017-08-10T11:09:27.508Z,40.1
2017-08-10T11:10:28.930Z,40.3
2017-08-10T11:11:50.441Z,40.5
2017-08-10T11:12:52.097Z,40.5
2017-08-10T11:14:13.635Z,40.6
2017-08-10T11:15:15.211Z,40.3
2017-08-10T11:16:37.082Z,39.9
2017-08-10T11:17:38.508Z,41.2
2017-08-10T11:19:00.292Z,41.5
2017-08-10T11:20:01.722Z,40.6
2017-08-10T11:21:23.240Z,40.5
2017-08-10T11:22:24.659Z,41.1
2017-08-10T11:23:46.194Z,42.3
2017-08-10T11:24:47.614Z,42.5
2017-08-10T11:26:09.609Z,43.1
2017-08-10T11:27:10.996Z,42.5
2017-08-10T11:28:32.538Z,42.1
2017-08-10T11:29:33.958Z,41.8
2017-08-10T11:30:55.477Z,40.7
2017-08-10T11:31:56.898Z,40.8
2017-08-10T11:33:18.415Z,41.8
2017-08-10T11:34:19.839Z,41.7
2017-08-10T11:35:41.375Z,40.3
2017-08-10T11:36:42.794Z,40.3
2017-08-10T11:38:04.320Z,41.0
2017-08-10T11:39:05.747Z,40.5
2017-08-10T11:40:27.273Z,39.8
2017-08-10T11:41:28.722Z,42.6
2017-08-10T11:42:51.213Z,41.5
2017-08-10T11:43:52.635Z,39.0
2017-08-10T11:45:14.195Z,38.6
2017-08-10T11:46:15.619Z,38.6
2017-08-10T11:47:37.129Z,38.7
2017-08-10T11:48:38.554Z,38.3
2017-08-10T11:50:00.098Z,38.7
2017-08-10T11:51:01.523Z,39.3
2017-08-10T11:52:24.230Z,38.7
2017-08-10T11:53:25.652Z,38.5
2017-08-10T11:54:47.184Z,38.4
2017-08-10T11:55:48.606Z,38.0
2017-08-10T11:57:10.120Z,39.1
2017-08-10T11:58:11.546Z,39.5
2017-08-10T11:59:33.075Z,39.9
2017-08-10T12:00:34.501Z,39.6
2017-08-10T12:01:56.014Z,40.5
2017-08-10T12:03:36.922Z,39.0
2017-08-10T12:04:38.379Z,38.0
2017-08-10T12:06:01.089Z,39.2
2017-08-10T12:07:02.507Z,39.8
2017-08-10T12:08:24.030Z,39.4
2017-08-10T12:09:25.452Z,39.1
2017-08-10T12:10:47.472Z,37.4
2017-08-10T12:11:48.899Z,38.8
2017-08-10T12:13:10.586Z,39.2
2017-08-10T12:14:12.012Z,38.6
2017-08-10T12:15:33.548Z,37.5
2017-08-10T12:16:34.968Z,37.4
2017-08-10T12:17:56.487Z,38.3
2017-08-10T12:18:57.912Z,38.2
2017-08-10T12:20:19.443Z,38.4
2017-08-10T12:21:20.864Z,38.5
2017-08-10T12:22:42.375Z,38.8
2017-08-10T12:23:44.087Z,38.5
2017-08-10T12:25:05.606Z,38.9
2017-08-10T12:26:07.028Z,38.4
2017-08-10T12:27:28.548Z,38.0
2017-08-10T12:28:29.969Z,38.5
2017-08-10T12:29:51.506Z,38.2
2017-08-10T12:30:52.929Z,38.0
2017-08-10T12:32:14.607Z,38.0
2017-08-10T12:33:16.031Z,39.1
2017-08-10T12:34:37.561Z,38.3
2017-08-10T12:35:38.985Z,39.3
2017-08-10T12:37:00.503Z,39.1
2017-08-10T12:38:01.922Z,38.6
2017-08-10T12:39:23.456Z,38.9
2017-08-10T12:40:24.880Z,37.7
2017-08-10T12:41:46.416Z,37.8
2017-08-10T12:42:47.838Z,37.0
2017-08-10T12:44:09.376Z,36.8
2017-08-10T12:45:10.798Z,36.7
2017-08-10T12:46:32.312Z,37.1
2017-08-10T12:47:33.737Z,37.5
2017-08-10T12:48:55.269Z,38.1
2017-08-10T12:49:56.697Z,37.8
2017-08-10T12:51:18.216Z,38.0
2017-08-10T12:52:19.638Z,37.7
2017-08-10T12:53:41.160Z,38.2
2017-08-10T12:54:42.583Z,38.0
2017-08-10T12:56:04.114Z,38.2
2017-08-10T12:57:05.534Z,38.4
2017-08-10T12:58:27.046Z,37.5
2017-08-10T12:59:28.485Z,37.9
2017-08-10T13:00:50.013Z,37.6
2017-08-10T13:01:51.436Z,37.1
2017-08-10T13:03:12.948Z,37.9
2017-08-10T13:04:14.372Z,37.8
2017-08-10T13:05:35.920Z,37.8
2017-08-10T13:06:37.814Z,38.1
2017-08-10T13:07:59.308Z,39.1
2017-08-10T13:09:01.757Z,38.5
2017-08-10T13:10:23.291Z,37.5
2017-08-10T13:11:24.714Z,37.7
2017-08-10T13:12:46.225Z,38.3
2017-08-10T13:13:47.651Z,37.3
2017-08-10T13:15:10.585Z,38.9
2017-08-10T13:16:11.894Z,39.4
2017-08-10T13:17:33.398Z,39.1
2017-08-10T13:18:34.819Z,39.4
2017-08-10T13:19:56.364Z,39.7
2017-08-10T13:21:37.251Z,39.0
2017-08-10T13:23:18.138Z,40.0
2017-08-10T13:24:19.559Z,39.7
2017-08-10T13:25:41.605Z,39.3
2017-08-10T13:26:43.002Z,39.6
2017-08-10T13:28:04.514Z,39.4
2017-08-10T13:29:05.933Z,39.1
2017-08-10T13:30:27.468Z,39.5
2017-08-10T13:31:28.888Z,39.6
2017-08-10T13:32:50.406Z,39.1
2017-08-10T13:33:51.821Z,39.9
2017-08-10T13:35:13.485Z,39.2
2017-08-10T13:36:14.903Z,39.9
2017-08-10T13:37:36.415Z,41.8
2017-08-10T13:38:37.836Z,42.2
2017-08-10T13:39:59.372Z,41.7
2017-08-10T13:41:00.792Z,41.1
2017-08-10T13:42:22.537Z,42.2
2017-08-10T13:43:23.959Z,42.2
2017-08-10T13:44:45.493Z,40.6
2017-08-10T13:45:46.916Z,40.3
2017-08-10T13:47:08.428Z,41.9
2017-08-10T13:48:09.848Z,42.0
2017-08-10T13:49:31.588Z,41.4
2017-08-10T13:50:33.011Z,43.0
2017-08-10T13:51:54.541Z,43.3
2017-08-10T13:52:55.962Z,41.6
2017-08-10T13:54:17.475Z,40.8
2017-08-10T13:55:18.895Z,41.6
2017-08-10T13:56:40.424Z,41.4
2017-08-10T13:57:41.845Z,40.9
2017-08-10T13:59:03.357Z,41.6
2017-08-10T14:00:04.791Z,41.0
2017-08-10T14:01:26.307Z,41.7
2017-08-10T14:02:27.732Z,41.8
2017-08-10T14:03:49.240Z,41.5
2017-08-10T14:04:50.660Z,41.8
2017-08-10T14:06:12.189Z,42.1
2017-08-10T14:07:13.610Z,41.5
2017-08-10T14:08:35.120Z,42.2
2017-08-10T14:09:36.540Z,42.1
2017-08-10T14:10:58.069Z,43.6
2017-08-10T14:11:59.490Z,42.9
2017-08-10T14:13:21.006Z,43.0
2017-08-10T14:14:22.422Z,42.6
2017-08-10T14:15:43.966Z,43.0
2017-08-10T14:16:45.388Z,42.7
2017-08-10T14:18:06.985Z,43.2
2017-08-10T14:19:08.412Z,43.2
2017-08-10T14:20:29.942Z,42.6
2017-08-10T14:21:31.378Z,42.8
2017-08-10T14:22:52.874Z,43.1
2017-08-10T14:23:54.293Z,43.0
2017-08-10T14:25:15.824Z,43.2
2017-08-10T14:26:17.244Z,42.6
2017-08-10T14:27:38.756Z,42.2
2017-08-10T14:28:41.284Z,41.3
2017-08-10T14:30:02.748Z,41.6
2017-08-10T14:31:04.634Z,41.3
2017-08-10T14:32:26.160Z,42.0
2017-08-10T14:33:27.584Z,41.6
2017-08-10T14:34:49.100Z,41.8
2017-08-10T14:35:50.521Z,42.2
2017-08-10T14:37:12.051Z,42.6
2017-08-10T14:38:13.474Z,42.5
2017-08-10T14:39:35.196Z,43.0
2017-08-10T14:40:36.616Z,43.3
2017-08-10T14:41:58.346Z,43.0
2017-08-10T14:42:59.766Z,43.7
2017-08-10T14:44:21.273Z,42.4
2017-08-10T14:45:22.693Z,42.8
2017-08-10T14:46:44.242Z,42.5
2017-08-10T14:47:45.663Z,43.0
2017-08-10T14:49:07.175Z,43.0
2017-08-10T14:50:08.595Z,43.1
2017-08-10T14:51:30.128Z,43.4
2017-08-10T14:52:31.551Z,43.3
2017-08-10T14:53:53.062Z,43.2
2017-08-10T14:54:54.482Z,43.0
2017-08-10T14:56:16.020Z,43.1
2017-08-10T14:57:17.439Z,42.7
2017-08-10T14:58:38.953Z,41.4
2017-08-10T14:59:40.397Z,42.2
2017-08-10T15:01:01.919Z,42.5
2017-08-10T15:02:03.342Z,42.8
2017-08-10T15:03:24.861Z,43.6
2017-08-10T15:04:26.278Z,44.0
2017-08-10T15:05:47.805Z,44.8
2017-08-10T15:06:49.228Z,45.0
2017-08-10T15:08:10.739Z,45.4
2017-08-10T15:09:12.160Z,45.0
2017-08-10T15:10:33.690Z,45.9
2017-08-10T15:11:35.110Z,45.1
2017-08-10T15:12:56.624Z,45.0
2017-08-10T15:13:58.043Z,45.2
2017-08-10T15:15:19.556Z,45.9
2017-08-10T15:16:20.978Z,45.4
2017-08-10T15:17:42.626Z,44.6
2017-08-10T15:18:44.070Z,45.3
2017-08-10T15:20:05.628Z,45.5
2017-08-10T15:21:07.042Z,45.5
2017-08-10T15:22:28.576Z,45.8
2017-08-10T15:23:29.996Z,45.6
2017-08-10T15:24:51.511Z,45.2
2017-08-10T15:25:52.930Z,45.2
2017-08-10T15:27:14.456Z,45.8
2017-08-10T15:28:15.878Z,46.0
2017-08-10T15:29:37.386Z,45.3
2017-08-10T15:30:38.806Z,45.3
2017-08-10T15:32:00.518Z,45.8
2017-08-10T15:33:01.941Z,44.8
2017-08-10T15:34:23.461Z,44.8
2017-08-10T15:35:24.924Z,44.8
2017-08-10T15:36:46.460Z,44.9
2017-08-10T15:37:48.148Z,44.3
2017-08-10T15:39:09.910Z,44.2
2017-08-10T15:40:11.333Z,43.8
2017-08-10T15:41:32.972Z,44.2
2017-08-10T15:43:13.864Z,44.3
2017-08-10T15:44:15.282Z,44.9
2017-08-10T15:45:36.839Z,44.8
2017-08-10T15:46:38.650Z,45.8
2017-08-10T15:48:01.406Z,45.3
2017-08-10T15:49:02.833Z,45.2
2017-08-10T15:50:24.366Z,45.7
2017-08-10T15:51:25.791Z,45.3
2017-08-10T15:52:47.324Z,45.3
2017-08-10T15:53:48.746Z,45.3
2017-08-10T15:55:10.258Z,45.1
2017-08-10T15:56:12.570Z,45.1
2017-08-10T15:57:34.140Z,44.7
2017-08-10T15:58:35.559Z,45.4
2017-08-10T15:59:57.076Z,45.3
2017-08-10T16:00:58.500Z,45.3
2017-08-10T16:02:20.027Z,45.3
2017-08-10T16:03:21.446Z,45.3
2017-08-10T16:04:42.957Z,45.7
2017-08-10T16:05:44.416Z,44.8
2017-08-10T16:07:06.978Z,44.8
2017-08-10T16:08:08.400Z,45.3
2017-08-10T16:09:29.950Z,45.3
2017-08-10T16:10:31.374Z,45.3
2017-08-10T16:11:52.909Z,45.9
2017-08-10T16:12:54.332Z,46.3
2017-08-10T16:14:15.845Z,47.0
2017-08-10T16:15:17.275Z,46.2
2017-08-10T16:16:38.844Z,45.8
2017-08-10T16:17:40.264Z,45.9
2017-08-10T16:19:02.769Z,45.9
2017-08-10T16:20:04.218Z,45.6
2017-08-10T16:21:25.759Z,45.5
2017-08-10T16:23:06.639Z,45.8
2017-08-10T16:24:08.058Z,46.7
2017-08-10T16:25:29.693Z,45.9
2017-08-10T16:26:31.112Z,47.0
2017-08-10T16:27:52.681Z,46.7
2017-08-10T16:28:54.094Z,47.7
2017-08-10T16:30:15.635Z,50.2
2017-08-10T16:31:17.110Z,49.3
2017-08-10T16:32:38.898Z,48.0
2017-08-10T16:33:40.315Z,47.5
2017-08-10T16:35:01.823Z,48.9
2017-08-10T16:36:03.245Z,49.1
2017-08-10T16:37:24.776Z,49.3
2017-08-10T16:38:26.198Z,49.2
2017-08-10T16:39:47.714Z,49.7
2017-08-10T16:40:49.133Z,49.8
2017-08-10T16:42:10.850Z,49.7
2017-08-10T16:43:12.269Z,50.8
2017-08-10T16:44:33.975Z,51.4
2017-08-10T16:45:35.512Z,51.0
2017-08-10T16:46:57.036Z,50.3
2017-08-10T16:47:58.467Z,50.7
2017-08-10T16:49:20.001Z,49.2
2017-08-10T16:50:21.419Z,49.1
2017-08-10T16:51:42.955Z,49.8
2017-08-10T16:52:44.375Z,49.7
2017-08-10T16:54:05.890Z,51.2
2017-08-10T16:55:07.307Z,51.2
2017-08-10T16:56:28.816Z,52.9
2017-08-10T16:57:30.236Z,53.4
2017-08-10T16:58:51.763Z,52.1
2017-08-10T16:59:53.183Z,52.5
2017-08-10T17:01:14.691Z,53.3
2017-08-10T17:02:16.116Z,53.0
2017-08-10T17:03:37.646Z,53.9
2017-08-10T17:04:39.101Z,57.1
2017-08-10T17:06:00.609Z,54.6
2017-08-10T17:07:02.027Z,58.2
2017-08-10T17:08:23.555Z,59.4
2017-08-10T17:09:24.975Z,58.3
2017-08-10T17:10:46.485Z,60.5
2017-08-10T17:11:48.029Z,57.3
2017-08-10T17:13:15.924Z,56.1
2017-08-10T17:14:17.373Z,59.4
2017-08-10T17:15:38.993Z,59.2
2017-08-10T17:16:40.410Z,58.5
2017-08-10T17:18:01.952Z,59.7
2017-08-10T17:19:03.389Z,60.8
2017-08-10T17:20:24.950Z,61.5
2017-08-10T17:21:26.591Z,60.3
2017-08-10T17:22:48.250Z,61.2
2017-08-10T17:23:49.672Z,63.2
2017-08-10T17:25:11.411Z,64.5
2017-08-10T17:26:12.835Z,63.3
2017-08-10T17:27:34.502Z,63.6
2017-08-10T17:28:35.919Z,64.9
2017-08-10T17:29:57.647Z,65.2
2017-08-10T17:30:59.067Z,66.6
2017-08-10T17:32:20.604Z,66.4
2017-08-10T17:33:22.020Z,66.8
2017-08-10T17:34:43.931Z,67.4
2017-08-10T17:35:45.367Z,67.6
2017-08-10T17:37:06.925Z,67.8
2017-08-10T17:38:08.321Z,69.6
2017-08-10T17:39:29.825Z,69.0
2017-08-10T17:40:31.320Z,69.5
2017-08-10T17:41:54.001Z,70.2
2017-08-10T17:42:55.449Z,70.3
2017-08-10T17:44:16.987Z,70.3
2017-08-10T17:45:18.406Z,70.3
2017-08-10T17:46:39.941Z,71.6
2017-08-10T17:47:41.357Z,71.7
2017-08-10T17:49:02.882Z,72.3
2017-08-10T17:50:04.370Z,72.1
2017-08-10T17:51:25.895Z,71.4
2017-08-10T17:52:27.310Z,72.2
2017-08-10T17:53:48.852Z,72.3
2017-08-10T17:54:50.267Z,71.8
2017-08-10T17:56:12.264Z,71.5
2017-08-10T17:57:13.966Z,72.1
2017-08-10T17:58:35.497Z,72.1
2017-08-10T17:59:36.915Z,73.3
2017-08-10T18:01:00.317Z,74.2
2017-08-10T18:02:01.577Z,73.2
2017-08-10T18:03:23.106Z,72.7
2017-08-10T18:04:24.522Z,73.0
2017-08-10T18:05:46.033Z,73.5
2017-08-10T18:06:47.570Z,74.2
2017-08-10T18:08:09.102Z,73.7
2017-08-10T18:09:10.882Z,74.2
2017-08-10T18:10:32.560Z,73.3
2017-08-10T18:11:34.594Z,72.5
2017-08-10T18:12:56.130Z,73.2
2017-08-10T18:13:57.546Z,73.7
2017-08-10T18:15:22.820Z,73.2
2017-08-10T18:16:24.239Z,72.7
2017-08-10T18:17:45.774Z,73.7
2017-08-10T18:18:47.191Z,73.7
2017-08-10T18:20:08.700Z,73.9
2017-08-10T18:21:10.115Z,74.5
2017-08-10T18:22:31.659Z,74.1
2017-08-10T18:23:33.076Z,74.2
2017-08-10T18:24:54.609Z,73.5
2017-08-10T18:26:35.519Z,73.8
2017-08-10T18:28:16.409Z,73.3
2017-08-10T18:29:17.823Z,73.1
2017-08-10T18:30:39.435Z,73.2
2017-08-10T18:31:40.936Z,73.6
2017-08-10T18:33:02.449Z,73.5
2017-08-10T18:34:03.863Z,73.4
2017-08-10T18:35:25.378Z,73.0
2017-08-10T18:36:27.710Z,73.3